Time;durP1;ratioP1;P1;durP2;ratioP2;P2;SDS_P1;SDS_P2;PMS_P1;PMS_P2;Temp;Humidity;BMP_temperature;BMP_pressure;BME280_temperature;BME280_humidity;BME280_pressure;Samples;Min_cycle;Max_cycle;Signal;HPM_P1;HPM_P2
2022/09/11 00:00:40;;;;;;;67.55;40.03;;;;;;;12.69;100.00;155710.34;5045793;28;20471;-78
2022/09/11 00:03:07;;;;;;;61.45;39.55;;;;;;;12.63;100.00;155697.50;5075631;28;20035;-81
2022/09/11 00:05:37;;;;;;;67.28;41.45;;;;;;;12.61;100.00;155692.34;5031388;28;20040;-79
2022/09/11 00:08:03;;;;;;;74.68;43.65;;;;;;;12.53;100.00;155671.81;5037736;28;20074;-77
2022/09/11 00:10:29;;;;;;;77.30;44.28;;;;;;;12.50;100.00;155664.09;5057128;28;20539;-82
2022/09/11 00:12:54;;;;;;;76.22;43.35;;;;;;;12.46;100.00;155655.09;5042434;28;20123;-82
2022/09/11 00:15:20;;;;;;;76.07;44.03;;;;;;;12.49;100.00;155660.25;5036927;28;20036;-78
2022/09/11 00:17:45;;;;;;;70.28;41.58;;;;;;;12.43;100.00;155647.44;5035126;28;20518;-78
2022/09/11 00:20:11;;;;;;;67.70;41.15;;;;;;;12.42;100.00;155643.56;5036240;28;20032;-80
2022/09/11 00:22:37;;;;;;;69.35;40.30;;;;;;;12.36;100.00;155629.44;5039399;28;20510;-81
2022/09/11 00:25:02;;;;;;;68.43;40.88;;;;;;;12.25;100.00;155601.19;5036025;28;20036;-79
2022/09/11 00:27:28;;;;;;;65.70;41.15;;;;;;;12.31;100.00;155615.31;5033032;28;20031;-79
2022/09/11 00:29:54;;;;;;;77.85;42.13;;;;;;;12.26;100.00;155603.72;5062477;28;20035;-81
2022/09/11 00:32:20;;;;;;;66.15;40.50;;;;;;;12.34;100.00;155622.97;5036452;28;20135;-81
2022/09/11 00:34:46;;;;;;;76.72;43.40;;;;;;;12.33;100.00;155621.72;5040766;28;20049;-80
2022/09/11 00:37:12;;;;;;;77.63;43.35;;;;;;;12.30;100.00;155612.72;5033636;28;20123;-80
2022/09/11 00:39:37;;;;;;;76.80;41.85;;;;;;;12.37;100.00;155631.97;5034684;28;20792;-81
2022/09/11 00:42:04;;;;;;;68.75;39.70;;;;;;;12.29;100.00;155610.19;5038507;28;20382;-76
2022/09/11 00:44:29;;;;;;;80.57;42.78;;;;;;;12.34;100.00;155624.31;5069062;28;20119;-77
2022/09/11 00:47:00;;;;;;;74.20;42.80;;;;;;;12.36;100.00;155629.44;5055214;28;20132;-80
2022/09/11 00:49:39;;;;;;;64.82;40.70;;;;;;;12.22;100.00;155593.47;5036101;28;20036;-81
2022/09/11 00:52:09;;;;;;;68.72;38.22;;;;;;;12.25;100.00;155601.19;5034425;28;20247;-79
2022/09/11 00:54:42;;;;;;;74.95;41.38;;;;;;;12.31;100.00;155616.56;5037253;28;20031;-82
2022/09/11 00:57:08;;;;;;;73.35;42.13;;;;;;;12.38;100.00;155634.56;5033125;28;20037;-78
2022/09/11 00:59:38;;;;;;;84.80;43.13;;;;;;;12.43;100.00;155646.09;5045881;28;20037;-79
2022/09/11 01:02:06;;;;;;;72.90;39.38;;;;;;;12.48;100.00;155658.97;5061742;28;20060;-79
2022/09/11 01:04:32;;;;;;;76.35;41.40;;;;;;;12.54;100.00;155674.38;5054841;28;20044;-80
2022/09/11 01:06:58;;;;;;;78.32;40.50;;;;;;;12.55;100.00;155676.97;5068766;28;20091;-79
2022/09/11 01:09:28;;;;;;;76.53;40.83;;;;;;;12.61;100.00;155691.09;5054403;28;20032;-80
2022/09/11 01:12:07;;;;;;;97.22;45.30;;;;;;;12.75;100.00;155725.75;5039668;28;20521;-78
2022/09/11 01:14:47;;;;;;;87.78;43.03;;;;;;;12.83;100.00;155747.63;5050626;28;20056;-79
2022/09/11 01:17:53;;;;;;;84.93;42.97;;;;;;;12.87;100.00;155756.59;5039347;28;20055;-77
2022/09/11 01:20:29;;;;;;;90.07;43.05;;;;;;;12.90;100.00;155764.28;5054842;28;20063;-78
2022/09/11 01:23:23;;;;;;;106.95;47.58;;;;;;;12.96;100.00;155779.75;5053456;28;20036;-79
2022/09/11 01:26:14;;;;;;;94.45;45.38;;;;;;;12.98;100.00;155784.88;5047574;28;20048;-79
2022/09/11 01:32:21;;;;;;;100.20;44.88;;;;;;;13.14;100.00;155823.41;5817025;23;20054;-77
2022/09/11 01:35:00;;;;;;;115.53;46.33;;;;;;;13.21;100.00;155841.41;5008845;28;20529;-77
2022/09/11 01:37:38;;;;;;;116.45;47.70;;;;;;;13.23;100.00;155846.56;5011047;28;20494;-79
2022/09/11 01:40:11;;;;;;;98.57;43.50;;;;;;;13.21;100.00;155842.69;4992032;28;20513;-81
2022/09/11 01:42:43;;;;;;;107.47;44.70;;;;;;;13.23;100.00;155846.56;5012522;28;20401;-79
2022/09/11 01:45:15;;;;;;;;;;;;;;;13.36;100.00;155880.00;5004829;28;20050;-81
2022/09/11 01:47:44;;;;;;;95.75;41.08;;;;;;;13.34;100.00;155874.88;5004471;28;20385;-81
2022/09/11 01:50:13;;;;;;;104.38;43.65;;;;;;;13.38;100.00;155885.16;5005490;28;20025;-82
2022/09/11 01:52:44;;;;;;;103.45;42.85;;;;;;;13.39;100.00;155886.41;5003076;28;20041;-81
2022/09/11 01:55:19;;;;;;;101.00;41.90;;;;;;;13.40;100.00;155889.00;5004780;28;20133;-81
2022/09/11 01:57:58;;;;;;;104.63;42.13;;;;;;;13.43;100.00;155898.00;5018783;28;20042;-82
2022/09/11 02:00:23;;;;;;;106.32;41.95;;;;;;;13.47;100.00;155905.69;4982694;28;20040;-83
2022/09/11 02:03:09;;;;;;;113.80;43.90;;;;;;;13.44;100.00;155899.28;4990642;28;20168;-81
2022/09/11 02:05:47;;;;;;;95.78;40.30;;;;;;;13.41;100.00;155892.88;4995966;28;20068;-80
2022/09/11 02:08:26;;;;;;;106.90;42.67;;;;;;;13.46;100.00;155903.16;4984968;28;20553;-82
2022/09/11 02:11:02;;;;;;;101.80;41.05;;;;;;;13.38;100.00;155885.16;4985633;28;20183;-82
2022/09/11 02:13:52;;;;;;;97.80;40.80;;;;;;;13.35;100.00;155877.41;4996204;28;20025;-83
2022/09/11 02:16:31;;;;;;;92.63;38.15;;;;;;;13.49;100.00;155912.16;5002569;28;20137;-78
2022/09/11 02:19:01;;;;;;;94.60;38.72;;;;;;;13.48;100.00;155909.56;4981293;28;20125;-83
2022/09/11 02:21:27;;;;;;;104.90;41.35;;;;;;;13.48;100.00;155908.28;5013467;28;20483;-82
2022/09/11 02:23:57;;;;;;;100.07;40.97;;;;;;;13.49;100.00;155912.16;4995682;28;20046;-83
2022/09/11 02:26:26;;;;;;;94.38;39.50;;;;;;;13.49;100.00;155910.88;5000227;28;20842;-80
2022/09/11 02:28:52;;;;;;;90.18;39.22;;;;;;;13.51;100.00;155916.03;4990559;28;20034;-81
2022/09/11 02:31:19;;;;;;;97.95;39.13;;;;;;;13.50;100.00;155914.69;4982981;28;20037;-82
2022/09/11 02:33:46;;;;;;;101.70;39.30;;;;;;;13.53;100.00;155922.44;5001638;28;20073;-83
2022/09/11 02:36:30;;;;;;;106.07;40.10;;;;;;;13.53;100.00;155921.16;5016813;28;20365;-81
2022/09/11 02:39:22;;;;;;;91.32;38.42;;;;;;;13.55;100.00;155926.28;5002953;28;20045;-81
2022/09/11 02:42:07;;;;;;;96.85;38.15;;;;;;;13.54;100.00;155925.03;4999933;28;20095;-81
2022/09/11 02:45:08;;;;;;;100.68;38.95;;;;;;;13.54;100.00;155925.03;5009682;28;20517;-82
2022/09/11 02:48:19;;;;;;;92.63;37.83;;;;;;;13.52;100.00;155919.84;4968679;28;20049;-80
2022/09/11 02:50:57;;;;;;;91.90;37.90;;;;;;;13.54;100.00;155925.03;4998620;28;20066;-81
2022/09/11 02:53:34;;;;;;;95.30;37.70;;;;;;;13.51;100.00;155916.03;5001805;28;20041;-81
2022/09/11 02:56:55;;;;;;;93.30;37.55;;;;;;;13.58;100.00;155935.28;4982153;28;20054;-80
2022/09/11 02:59:32;;;;;;;95.50;38.20;;;;;;;13.54;100.00;155925.03;4967441;28;20049;-82
2022/09/11 03:02:00;;;;;;;98.45;39.90;;;;;;;13.48;100.00;155909.56;5003754;28;20302;-80
2022/09/11 03:04:29;;;;;;;97.35;38.17;;;;;;;13.52;100.00;155919.84;4999150;28;20492;-81
2022/09/11 03:06:57;;;;;;;95.97;38.80;;;;;;;13.52;100.00;155918.56;4985365;28;20037;-83
2022/09/11 03:09:23;;;;;;;93.15;38.28;;;;;;;13.52;100.00;155919.84;5002846;28;20379;-82
2022/09/11 03:11:54;;;;;;;85.03;36.30;;;;;;;13.56;100.00;155930.16;4997309;28;20034;-81
2022/09/11 03:14:20;;;;;;;95.53;38.35;;;;;;;13.56;100.00;155928.84;5017280;28;20061;-79
2022/09/11 03:16:47;;;;;;;93.45;39.05;;;;;;;13.56;100.00;155930.16;4999613;28;20038;-81
2022/09/11 03:19:13;;;;;;;84.43;36.35;;;;;;;13.47;100.00;155905.69;4987276;28;20040;-82
2022/09/11 03:21:39;;;;;;;88.63;36.60;;;;;;;13.48;100.00;155908.28;4984197;28;20033;-82
2022/09/11 03:24:05;;;;;;;85.15;36.78;;;;;;;13.56;100.00;155930.16;5030591;28;20044;-81
2022/09/11 03:26:34;;;;;;;93.05;38.25;;;;;;;13.59;100.00;155937.84;5000807;28;20040;-82
2022/09/11 03:29:01;;;;;;;95.90;36.80;;;;;;;13.59;100.00;155936.56;5002979;28;20490;-81
2022/09/11 03:31:27;;;;;;;92.63;37.40;;;;;;;13.63;100.00;155946.84;5006535;28;20038;-82
2022/09/11 03:33:53;;;;;;;83.03;34.33;;;;;;;13.55;100.00;155927.56;5019931;28;20111;-83
2022/09/11 03:36:21;;;;;;;87.13;35.75;;;;;;;13.60;100.00;155939.16;4994452;28;20103;-82
2022/09/11 03:38:47;;;;;;;78.88;33.63;;;;;;;13.55;100.00;155927.56;5006985;28;20041;-78
2022/09/11 03:41:15;;;;;;;74.20;34.15;;;;;;;13.56;100.00;155928.84;4990195;28;20057;-81
2022/09/11 03:43:40;;;;;;;74.50;32.50;;;;;;;13.54;100.00;155925.03;4997715;28;20066;-82
2022/09/11 03:46:06;;;;;;;75.47;33.33;;;;;;;13.56;100.00;155928.84;4992335;28;20042;-82
2022/09/11 03:48:33;;;;;;;72.93;33.30;;;;;;;13.54;100.00;155925.03;4983773;28;20441;-81
2022/09/11 03:51:01;;;;;;;79.30;34.85;;;;;;;13.51;100.00;155917.28;5000206;28;20117;-81
2022/09/11 03:53:27;;;;;;;88.82;34.75;;;;;;;13.54;100.00;155923.69;4979928;28;20030;-81
2022/09/11 03:55:53;;;;;;;90.05;35.55;;;;;;;13.51;100.00;155917.28;4992337;28;20045;-81
2022/09/11 03:58:19;;;;;;;75.03;30.88;;;;;;;13.52;100.00;155918.56;5001105;28;20064;-80
2022/09/11 04:00:46;;;;;;;86.68;33.78;;;;;;;13.43;100.00;155896.75;4986363;28;20491;-82
2022/09/11 04:03:14;;;;;;;90.03;35.50;;;;;;;13.51;100.00;155916.03;5021563;28;20478;-80
2022/09/11 04:05:54;;;;;;;86.40;34.28;;;;;;;13.49;100.00;155910.88;5001374;28;20048;-83
2022/09/11 04:08:19;;;;;;;75.00;32.30;;;;;;;13.44;100.00;155899.28;5001927;28;20045;-82
2022/09/11 04:10:45;;;;;;;86.45;33.42;;;;;;;13.44;100.00;155899.28;4994823;28;20042;-83
2022/09/11 04:13:10;;;;;;;76.15;31.58;;;;;;;13.42;100.00;155894.16;5001071;28;20033;-79
2022/09/11 04:15:36;;;;;;;79.40;31.52;;;;;;;13.37;100.00;155882.59;5015210;28;20107;-82
2022/09/11 04:18:07;;;;;;;71.20;29.73;;;;;;;13.47;100.00;155907.00;4987459;28;20029;-79
2022/09/11 04:20:37;;;;;;;85.93;31.92;;;;;;;13.44;100.00;155899.28;4976732;28;20044;-80
2022/09/11 04:23:03;;;;;;;81.93;32.13;;;;;;;13.43;100.00;155896.75;5017790;28;20049;-81
2022/09/11 04:25:30;;;;;;;86.95;32.17;;;;;;;13.46;100.00;155903.16;5018277;28;20053;-81
2022/09/11 04:27:56;;;;;;;80.93;31.40;;;;;;;13.44;100.00;155899.28;4989082;28;20045;-82
2022/09/11 04:30:22;;;;;;;79.90;30.25;;;;;;;13.47;100.00;155905.69;5002926;28;20063;-81
2022/09/11 04:32:49;;;;;;;80.40;30.98;;;;;;;13.47;100.00;155907.00;4982832;28;20079;-79
2022/09/11 04:35:15;;;;;;;88.18;31.60;;;;;;;13.48;100.00;155909.56;4987011;28;20155;-81
2022/09/11 04:37:48;;;;;;;81.18;30.63;;;;;;;13.48;100.00;155908.28;5003222;28;20045;-79
2022/09/11 04:40:14;;;;;;;82.28;30.60;;;;;;;13.47;100.00;155905.69;4983685;28;20625;-81
2022/09/11 04:42:40;;;;;;;82.18;31.10;;;;;;;13.50;100.00;155914.69;5006242;28;20040;-81
2022/09/11 04:45:07;;;;;;;86.45;29.85;;;;;;;13.50;100.00;155913.41;5004697;28;20049;-80
2022/09/11 04:47:32;;;;;;;78.20;30.05;;;;;;;13.45;100.00;155901.88;5016166;28;20091;-82
2022/09/11 04:49:59;;;;;;;70.82;29.17;;;;;;;13.45;100.00;155901.88;5000120;28;20054;-80
2022/09/11 04:52:24;;;;;;;64.45;28.50;;;;;;;13.50;100.00;155913.41;4988290;28;20033;-81
2022/09/11 04:54:50;;;;;;;71.72;27.58;;;;;;;13.48;100.00;155909.56;4981333;28;20041;-81
2022/09/11 04:57:16;;;;;;;81.95;29.52;;;;;;;13.47;100.00;155905.69;5003282;28;20030;-82
2022/09/11 04:59:42;;;;;;;69.60;28.83;;;;;;;13.42;100.00;155895.41;5019341;28;20041;-85
2022/09/11 05:02:11;;;;;;;67.72;27.13;;;;;;;13.43;100.00;155898.00;5005884;28;20064;-81
2022/09/11 05:04:40;;;;;;;66.40;26.95;;;;;;;13.44;100.00;155899.28;4988965;28;20037;-83
2022/09/11 05:07:06;;;;;;;62.42;26.55;;;;;;;13.38;100.00;155885.16;4987690;28;20537;-82
2022/09/11 05:09:31;;;;;;;61.45;26.65;;;;;;;13.52;100.00;155919.84;5002139;28;20045;-82
2022/09/11 05:11:57;;;;;;;56.50;25.10;;;;;;;13.48;100.00;155909.56;4986776;28;20056;-82
2022/09/11 05:14:28;;;;;;;60.83;25.52;;;;;;;13.49;100.00;155910.88;4993212;28;20030;-80
2022/09/11 05:16:54;;;;;;;67.10;27.40;;;;;;;13.43;100.00;155896.75;5018404;28;20053;-82
2022/09/11 05:19:24;;;;;;;62.17;26.70;;;;;;;13.52;100.00;155919.84;4985512;28;20041;-82
2022/09/11 05:21:50;;;;;;;70.50;26.05;;;;;;;13.49;100.00;155910.88;5000751;28;20030;-81
2022/09/11 05:24:15;;;;;;;54.42;25.05;;;;;;;13.51;100.00;155917.28;5017301;28;20061;-82
2022/09/11 05:26:41;;;;;;;54.75;24.20;;;;;;;13.48;100.00;155909.56;4989310;28;20072;-81
2022/09/11 05:29:11;;;;;;;51.60;24.63;;;;;;;13.53;100.00;155921.16;5018400;28;20045;-81
2022/09/11 05:31:46;;;;;;;46.38;23.83;;;;;;;13.53;100.00;155922.44;4987700;28;20453;-80
2022/09/11 05:34:14;;;;;;;39.25;21.67;;;;;;;13.43;100.00;155898.00;5005113;28;20037;-81
2022/09/11 05:36:40;;;;;;;51.95;23.25;;;;;;;13.34;100.00;155873.59;4983630;28;20042;-83
2022/09/11 05:39:08;;;;;;;42.67;21.70;;;;;;;13.30;100.00;155864.59;5002051;28;20505;-82
2022/09/11 05:41:34;;;;;;;43.28;22.88;;;;;;;13.21;100.00;155842.69;4982617;28;20379;-81
2022/09/11 05:43:59;;;;;;;45.33;22.85;;;;;;;13.18;100.00;155834.97;4997573;28;20100;-82
2022/09/11 05:46:25;;;;;;;45.25;21.17;;;;;;;13.18;100.00;155833.69;4985897;28;20072;-82
2022/09/11 05:48:55;;;;;;;43.22;21.80;;;;;;;13.15;100.00;155827.28;4990034;28;20026;-81
2022/09/11 05:51:21;;;;;;;40.63;21.33;;;;;;;13.19;100.00;155837.56;4984115;28;20034;-82
2022/09/11 05:53:51;;;;;;;37.47;19.33;;;;;;;13.21;100.00;155842.69;5008826;28;20392;-82
2022/09/11 05:56:19;;;;;;;31.90;17.33;;;;;;;13.24;100.00;155850.41;4984321;28;20044;-83
2022/09/11 05:58:46;;;;;;;35.13;18.65;;;;;;;13.25;100.00;155851.69;5008264;28;20503;-82
2022/09/11 06:01:15;;;;;;;37.80;19.05;;;;;;;13.28;100.00;155859.41;4994321;28;20030;-82
2022/09/11 06:03:43;;;;;;;40.80;19.38;;;;;;;13.25;100.00;155852.97;4987914;28;20075;-80
2022/09/11 06:06:11;;;;;;;34.20;17.33;;;;;;;13.38;100.00;155883.88;5004751;28;20048;-81
2022/09/11 06:08:38;;;;;;;39.40;18.70;;;;;;;13.43;100.00;155896.75;5001359;28;20038;-82
2022/09/11 06:11:06;;;;;;;35.55;17.95;;;;;;;13.50;100.00;155913.41;4997436;28;20032;-81
2022/09/11 06:13:35;;;;;;;34.95;17.73;;;;;;;13.46;100.00;155904.44;5002342;28;20042;-82
2022/09/11 06:16:02;;;;;;;33.45;16.85;;;;;;;13.46;100.00;155903.16;5002124;28;20061;-81
2022/09/11 06:18:28;;;;;;;37.60;18.88;;;;;;;13.56;100.00;155928.84;5017666;28;20034;-81
2022/09/11 06:20:59;;;;;;;34.50;17.83;;;;;;;13.65;100.00;155950.69;5001490;28;20038;-81
2022/09/11 06:23:26;;;;;;;32.75;18.10;;;;;;;13.62;100.00;155945.56;5005453;28;20033;-81
2022/09/11 06:25:53;;;;;;;34.97;18.00;;;;;;;13.80;100.00;155989.25;4992998;28;20038;-81
2022/09/11 06:28:22;;;;;;;35.97;18.80;;;;;;;13.90;100.00;156015.00;5002110;28;20040;-82
2022/09/11 06:30:50;;;;;;;32.42;17.65;;;;;;;14.02;100.00;156045.81;5007011;28;20033;-82
2022/09/11 06:33:19;;;;;;;29.35;17.27;;;;;;;14.09;100.00;156061.25;5007342;28;20557;-82
2022/09/11 06:36:16;;;;;;;23.33;14.82;;;;;;;14.20;100.00;156089.53;5008833;28;20041;-83
2022/09/11 06:38:45;;;;;;;28.58;16.75;;;;;;;14.23;100.00;156097.25;4987435;28;20128;-79
2022/09/11 06:41:15;;;;;;;22.38;14.52;;;;;;;14.31;100.00;156117.81;5006723;28;20048;-81
2022/09/11 06:43:43;;;;;;;22.27;13.25;;;;;;;14.51;100.00;156168.00;4992115;28;20048;-82
2022/09/11 06:46:13;;;;;;;20.45;13.23;;;;;;;14.62;100.00;156195.06;5001904;28;20067;-81
2022/09/11 06:48:40;;;;;;;16.00;12.13;;;;;;;14.75;100.00;156227.22;5023809;28;20495;-83
2022/09/11 06:51:10;;;;;;;15.15;11.00;;;;;;;14.81;100.00;156241.38;5001146;28;20396;-80
2022/09/11 06:53:36;;;;;;;12.10;9.93;;;;;;;14.96;100.00;156279.97;5016171;28;20037;-83
2022/09/11 06:56:11;;;;;;;13.65;9.60;;;;;;;15.08;100.00;156309.53;5005433;28;20124;-82
2022/09/11 06:58:38;;;;;;;12.43;8.80;;;;;;;15.31;100.00;156367.41;4990378;28;20411;-82
2022/09/11 07:01:07;;;;;;;9.98;7.25;;;;;;;15.48;100.00;156409.88;4984956;28;20041;-82
2022/09/11 07:03:33;;;;;;;8.68;6.63;;;;;;;15.37;100.00;156384.16;4982447;28;20052;-80
2022/09/11 07:06:01;;;;;;;7.70;6.70;;;;;;;15.42;100.00;156395.72;4988754;28;20037;-84
2022/09/11 07:08:27;;;;;;;8.50;6.72;;;;;;;15.49;100.00;156412.47;4988573;28;20037;-83
2022/09/11 07:10:53;;;;;;;7.95;6.63;;;;;;;15.52;100.00;156421.50;4982604;28;20513;-83
2022/09/11 07:13:19;;;;;;;8.98;6.82;;;;;;;15.44;100.00;156399.59;4990474;28;20029;-81
2022/09/11 07:15:48;;;;;;;8.13;7.10;;;;;;;15.30;100.00;156366.13;5022758;28;20051;-83
2022/09/11 07:18:14;;;;;;;12.60;8.57;;;;;;;15.25;100.00;156353.25;5004837;28;20057;-82
2022/09/11 07:20:40;;;;;;;12.88;7.68;;;;;;;15.25;100.00;156353.25;4982847;28;20107;-82
2022/09/11 07:23:09;;;;;;;9.77;7.35;;;;;;;15.09;100.00;156312.13;4986483;28;20091;-83
2022/09/11 07:25:39;;;;;;;9.95;7.20;;;;;;;15.04;100.00;156299.25;5001178;28;20048;-82
2022/09/11 07:28:05;;;;;;;8.68;7.05;;;;;;;15.10;100.00;156315.94;5006419;28;20094;-81
2022/09/11 07:30:31;;;;;;;8.43;7.60;;;;;;;15.14;100.00;156326.28;5006777;28;20124;-82
2022/09/11 07:32:58;;;;;;;8.52;7.13;;;;;;;15.22;100.00;156345.56;5022261;28;20032;-81
2022/09/11 07:35:23;;;;;;;9.10;7.05;;;;;;;15.34;100.00;156375.16;5000567;28;20041;-82
2022/09/11 07:37:51;;;;;;;9.10;7.05;;;;;;;15.38;100.00;156385.44;4992857;28;20041;-83
2022/09/11 07:40:21;;;;;;;8.23;6.22;;;;;;;15.44;100.00;156400.88;5006130;28;20025;-82
2022/09/11 07:42:47;;;;;;;6.70;5.93;;;;;;;15.45;100.00;156403.47;5003312;28;20483;-81
2022/09/11 07:45:13;;;;;;;8.55;5.70;;;;;;;15.46;100.00;156406.00;5010045;28;20125;-80
2022/09/11 07:47:40;;;;;;;5.97;5.38;;;;;;;15.43;100.00;156398.31;4991766;28;20041;-80
2022/09/11 07:50:06;;;;;;;6.50;5.60;;;;;;;15.48;100.00;156409.88;4990824;28;20064;-82
2022/09/11 07:52:32;;;;;;;6.35;5.50;;;;;;;15.48;100.00;156409.88;4979797;28;20042;-82
2022/09/11 07:55:00;;;;;;;6.30;5.70;;;;;;;15.57;100.00;156434.31;4982810;28;20041;-81
2022/09/11 07:57:29;;;;;;;7.63;6.63;;;;;;;15.58;100.00;156435.63;5006503;28;20034;-83
2022/09/11 07:59:55;;;;;;;10.07;6.60;;;;;;;15.73;100.00;156472.97;5010873;28;20040;-84
2022/09/11 08:02:21;;;;;;;9.02;6.65;;;;;;;15.78;100.00;156485.84;4990034;28;20042;-80
2022/09/11 08:04:48;;;;;;;6.65;6.05;;;;;;;15.79;100.00;156487.16;5004283;28;20037;-81
2022/09/11 08:07:13;;;;;;;6.80;6.15;;;;;;;15.85;100.00;156503.88;4979504;28;20407;-81
2022/09/11 08:09:39;;;;;;;6.40;5.45;;;;;;;15.88;100.00;156510.28;5006498;28;20502;-83
2022/09/11 08:12:06;;;;;;;6.28;5.10;;;;;;;15.87;100.00;156507.75;5005165;28;20025;-82
2022/09/11 08:14:35;;;;;;;6.80;4.50;;;;;;;16.00;100.00;156539.94;4977271;28;20115;-81
2022/09/11 08:17:10;;;;;;;7.07;4.35;;;;;;;16.05;100.00;156552.78;5003241;28;20038;-81
2022/09/11 08:19:37;;;;;;;4.65;4.00;;;;;;;15.92;100.00;156520.63;5005194;28;20037;-82
2022/09/11 08:22:03;;;;;;;6.25;4.05;;;;;;;15.91;100.00;156519.31;5005800;28;20036;-81
2022/09/11 08:24:33;;;;;;;4.75;3.78;;;;;;;15.98;100.00;156534.78;4998552;28;20042;-79
2022/09/11 08:27:02;;;;;;;4.45;3.95;;;;;;;16.06;100.00;156556.66;4988319;28;20042;-81
2022/09/11 08:29:29;;;;;;;4.28;3.65;;;;;;;16.18;100.00;156584.97;4982186;28;20065;-82
2022/09/11 08:31:55;;;;;;;5.30;3.88;;;;;;;16.25;100.00;156604.28;4987786;28;20042;-82
2022/09/11 08:34:21;;;;;;;4.25;3.65;;;;;;;16.40;100.00;156640.34;4986348;28;20045;-82
2022/09/11 08:36:49;;;;;;;4.30;3.90;;;;;;;16.41;100.00;156644.22;5020862;28;20037;-79
2022/09/11 08:39:15;;;;;;;4.18;3.65;;;;;;;16.52;100.00;156671.25;4995790;28;20040;-82
2022/09/11 08:41:58;;;;;;;6.88;3.70;;;;;;;16.61;100.00;156693.13;4997027;28;20037;-82
2022/09/11 08:44:29;;;;;;;8.95;3.75;;;;;;;16.70;100.00;156717.56;5001267;28;20385;-82
2022/09/11 08:47:18;;;;;;;4.03;3.30;;;;;;;16.58;100.00;156685.41;5003337;28;20128;-82
2022/09/11 08:50:20;;;;;;;3.58;3.22;;;;;;;16.53;100.00;156675.09;4986612;28;20044;-80
2022/09/11 08:52:47;;;;;;;4.47;2.80;;;;;;;16.46;100.00;156655.78;5001214;28;20041;-81
2022/09/11 08:55:27;;;;;;;2.90;2.53;;;;;;;16.49;100.00;156664.78;5000585;28;20037;-80
2022/09/11 08:58:08;;;;;;;3.33;3.03;;;;;;;16.46;100.00;156657.09;4988719;28;20410;-79
2022/09/11 09:00:49;;;;;;;3.37;2.87;;;;;;;16.54;100.00;156677.69;4989065;28;20045;-80
2022/09/11 09:03:41;;;;;;;3.63;3.30;;;;;;;16.57;100.00;156682.81;4978897;28;20034;-82
2022/09/11 09:06:35;;;;;;;4.20;3.80;;;;;;;16.60;100.00;156690.56;5005111;28;20517;-80
2022/09/11 09:09:46;;;;;;;4.85;3.33;;;;;;;16.68;100.00;156711.16;5005709;28;20044;-81
2022/09/11 09:12:44;;;;;;;4.53;4.10;;;;;;;16.50;100.00;156667.38;5016594;28;20026;-80
2022/09/11 09:15:16;;;;;;;3.85;3.55;;;;;;;16.43;100.00;156648.06;5003764;28;20044;-81
2022/09/11 09:17:48;;;;;;;4.28;3.20;;;;;;;16.35;100.00;156630.03;4981980;28;20041;-82
2022/09/11 09:20:37;;;;;;;3.70;2.92;;;;;;;16.33;100.00;156624.91;5000411;28;20025;-82
2022/09/11 09:23:24;;;;;;;3.15;2.85;;;;;;;16.46;100.00;156657.09;5016385;28;20033;-83
2022/09/11 09:25:54;;;;;;;3.70;2.80;;;;;;;16.35;100.00;156628.78;5005164;28;20398;-82
2022/09/11 09:28:28;;;;;;;4.43;2.80;;;;;;;16.18;100.00;156584.97;4987108;28;20034;-83
2022/09/11 09:30:57;;;;;;;3.08;2.78;;;;;;;16.33;100.00;156624.91;5017557;28;20411;-82
2022/09/11 09:33:26;;;;;;;4.60;2.90;;;;;;;16.56;100.00;156681.56;5000636;28;20084;-83
2022/09/11 09:35:56;;;;;;;2.58;2.38;;;;;;;16.73;100.00;156725.31;5002105;28;20389;-82
2022/09/11 09:38:28;;;;;;;2.42;2.22;;;;;;;17.22;100.00;156846.44;5012669;28;20038;-81
2022/09/11 09:41:00;;;;;;;2.40;2.20;;;;;;;17.47;100.00;156910.81;5003521;28;20038;-81
2022/09/11 09:44:03;;;;;;;2.45;2.25;;;;;;;17.54;100.00;156926.28;4986436;28;20122;-81
2022/09/11 09:46:45;;;;;;;4.40;2.97;;;;;;;17.54;100.00;156926.28;4999701;28;20037;-82
2022/09/11 09:49:16;;;;;;;2.70;2.50;;;;;;;17.61;100.00;156945.66;4982325;28;20040;-82
2022/09/11 09:51:42;;;;;;;3.15;2.30;;;;;;;17.52;100.00;156922.44;5002266;28;20041;-81
2022/09/11 09:54:14;;;;;;;3.38;2.20;;;;;;;17.62;100.00;156948.19;5020530;28;20042;-82
2022/09/11 09:56:43;;;;;;;3.58;2.30;;;;;;;17.49;100.00;156915.97;5000968;28;20046;-79
2022/09/11 09:59:20;;;;;;;3.20;2.47;;;;;;;17.92;100.00;157021.72;5003853;28;20092;-82
2022/09/11 10:01:53;;;;;;;2.60;2.40;;;;;;;18.34;100.00;157128.66;5005304;28;20075;-83
2022/09/11 10:04:25;;;;;;;6.45;2.72;;;;;;;18.22;100.00;157097.75;5005735;28;20029;-83
2022/09/11 10:07:03;;;;;;;4.13;3.00;;;;;;;17.89;100.00;157015.25;5006094;28;20041;-83
2022/09/11 10:09:29;;;;;;;2.60;2.40;;;;;;;17.74;100.00;156976.53;4997161;28;20053;-85
2022/09/11 10:12:01;;;;;;;4.22;2.53;;;;;;;17.65;100.00;156955.94;5007818;28;20037;-81
2022/09/11 10:14:49;;;;;;;3.95;2.70;;;;;;;18.03;100.00;157051.34;5009363;28;20026;-81
2022/09/11 10:17:29;;;;;;;4.38;2.28;;;;;;;18.54;100.00;157177.66;5035396;28;20037;-81
2022/09/11 10:20:11;;;;;;;1.83;1.55;;;;;;;18.65;100.00;157206.03;5007591;28;20495;-80
2022/09/11 10:22:36;;;;;;;2.63;1.58;;;;;;;18.27;99.24;157111.91;5006714;28;20037;-81
2022/09/11 10:25:10;;;;;;;2.47;1.80;;;;;;;17.89;100.00;157015.25;5006218;28;20038;-82
2022/09/11 10:28:03;;;;;;;2.08;1.60;;;;;;;18.12;100.00;157073.25;5020351;28;20522;-82
2022/09/11 10:30:35;;;;;;;4.25;2.10;;;;;;;18.77;97.40;157236.94;4986213;28;20038;-82
2022/09/11 10:33:04;;;;;;;3.33;2.10;;;;;;;19.33;92.61;157377.53;5005161;28;20044;-81
2022/09/11 10:35:33;;;;;;;3.40;1.77;;;;;;;19.73;91.82;157478.19;5006138;28;20061;-82
2022/09/11 10:38:07;;;;;;;2.25;1.90;;;;;;;19.84;92.38;157506.56;5007371;28;20033;-82
2022/09/11 10:40:33;;;;;;;4.93;2.08;;;;;;;20.09;89.30;157567.19;5003131;28;20109;-80
2022/09/11 10:42:59;;;;;;;4.50;2.10;;;;;;;20.17;87.19;157587.81;5005869;28;20054;-84
2022/09/11 10:45:24;;;;;;;2.38;1.90;;;;;;;19.78;87.91;157491.09;5006272;28;20037;-83
2022/09/11 10:47:51;;;;;;;2.28;1.40;;;;;;;19.39;89.50;157391.72;4990354;28;20124;-81
2022/09/11 10:50:16;;;;;;;2.05;1.20;;;;;;;19.79;87.91;157493.66;4987765;28;20029;-82
2022/09/11 10:52:54;;;;;;;2.10;1.20;;;;;;;19.35;85.59;157381.44;5025681;28;20223;-82
2022/09/11 10:55:20;;;;;;;2.70;1.52;;;;;;;18.75;89.54;157230.50;4994079;28;20033;-81
2022/09/11 10:58:04;;;;;;;1.77;1.42;;;;;;;18.36;95.02;157133.81;5007949;28;20037;-83
2022/09/11 11:00:30;;;;;;;2.33;1.50;;;;;;;18.09;99.67;157065.50;5004197;28;20061;-84
2022/09/11 11:03:03;;;;;;;2.63;1.50;;;;;;;18.18;99.79;157087.44;4991650;28;20038;-84
2022/09/11 11:05:56;;;;;;;3.03;1.80;;;;;;;18.60;98.00;157193.13;5020816;28;20132;-81
2022/09/11 11:08:45;;;;;;;2.97;1.58;;;;;;;18.77;93.98;157236.94;4994581;28;20313;-82
2022/09/11 11:11:16;;;;;;;1.98;1.40;;;;;;;18.50;95.07;157168.63;5018895;28;20069;-83
2022/09/11 11:14:03;;;;;;;2.22;1.40;;;;;;;18.72;91.98;157224.03;5029958;28;20104;-83
2022/09/11 11:16:47;;;;;;;1.50;1.27;;;;;;;19.27;91.08;157362.09;5004219;28;20037;-83
2022/09/11 11:19:50;;;;;;;1.50;1.40;;;;;;;19.56;87.98;157434.28;4992313;28;20554;-80
2022/09/11 11:22:50;;;;;;;1.52;1.20;;;;;;;20.09;88.67;157568.47;4989236;28;20052;-82
2022/09/11 11:25:26;;;;;;;1.30;1.20;;;;;;;20.63;83.28;157704.03;5009080;28;20137;-83
2022/09/11 11:28:12;;;;;;;1.63;1.15;;;;;;;20.30;89.29;157620.09;5009548;28;20111;-82
2022/09/11 11:31:01;;;;;;;4.25;1.55;;;;;;;20.26;89.93;157609.78;4989809;28;20041;-82